sensor_id;sensor_type;location;lat;lon;timestamp;P1;durP1;ratioP1;P2;durP2;ratioP2
75655;SDS011;64252;51.094;13.714;2023-06-14T00:01:53;6.63;;;2.53;;
75655;SDS011;64252;51.094;13.714;2023-06-14T00:04:18;4.57;;;2.50;;
75655;SDS011;64252;51.094;13.714;2023-06-14T00:06:45;6.47;;;2.40;;
75655;SDS011;64252;51.094;13.714;2023-06-14T00:09:11;5.60;;;2.80;;
75655;SDS011;64252;51.094;13.714;2023-06-14T00:11:42;5.63;;;2.45;;
75655;SDS011;64252;51.094;13.714;2023-06-14T00:14:09;4.05;;;2.45;;
75655;SDS011;64252;51.094;13.714;2023-06-14T00:16:35;5.70;;;2.70;;
75655;SDS011;64252;51.094;13.714;2023-06-14T00:19:01;7.05;;;2.53;;
75655;SDS011;64252;51.094;13.714;2023-06-14T00:21:31;4.72;;;2.60;;
75655;SDS011;64252;51.094;13.714;2023-06-14T00:23:57;4.60;;;2.33;;
75655;SDS011;64252;51.094;13.714;2023-06-14T00:26:23;4.10;;;2.60;;
75655;SDS011;64252;51.094;13.714;2023-06-14T00:28:51;4.85;;;2.30;;
75655;SDS011;64252;51.094;13.714;2023-06-14T00:31:17;4.45;;;2.58;;
75655;SDS011;64252;51.094;13.714;2023-06-14T00:33:43;4.68;;;2.50;;
75655;SDS011;64252;51.094;13.714;2023-06-14T00:36:11;4.85;;;2.72;;
75655;SDS011;64252;51.094;13.714;2023-06-14T00:38:38;8.88;;;2.40;;
75655;SDS011;64252;51.094;13.714;2023-06-14T00:41:03;5.97;;;2.88;;
75655;SDS011;64252;51.094;13.714;2023-06-14T00:43:29;5.90;;;2.58;;
75655;SDS011;64252;51.094;13.714;2023-06-14T00:45:58;4.68;;;2.50;;
75655;SDS011;64252;51.094;13.714;2023-06-14T00:48:23;4.30;;;2.67;;
75655;SDS011;64252;51.094;13.714;2023-06-14T00:50:50;6.30;;;2.88;;
75655;SDS011;64252;51.094;13.714;2023-06-14T00:53:18;6.25;;;2.72;;
75655;SDS011;64252;51.094;13.714;2023-06-14T00:55:44;5.28;;;2.65;;
75655;SDS011;64252;51.094;13.714;2023-06-14T00:58:10;5.05;;;2.78;;
75655;SDS011;64252;51.094;13.714;2023-06-14T01:00:36;4.40;;;3.00;;
75655;SDS011;64252;51.094;13.714;2023-06-14T01:03:01;5.65;;;3.20;;
75655;SDS011;64252;51.094;13.714;2023-06-14T01:05:28;4.40;;;2.70;;
75655;SDS011;64252;51.094;13.714;2023-06-14T01:13:38;4.97;;;2.65;;
75655;SDS011;64252;51.094;13.714;2023-06-14T01:16:06;4.18;;;2.45;;
75655;SDS011;64252;51.094;13.714;2023-06-14T01:18:33;5.32;;;3.13;;
75655;SDS011;64252;51.094;13.714;2023-06-14T01:21:01;4.13;;;2.60;;
75655;SDS011;64252;51.094;13.714;2023-06-14T01:23:30;5.13;;;2.75;;
75655;SDS011;64252;51.094;13.714;2023-06-14T01:28:30;4.38;;;2.92;;
75655;SDS011;64252;51.094;13.714;2023-06-14T01:30:59;5.10;;;3.00;;
75655;SDS011;64252;51.094;13.714;2023-06-14T01:33:29;5.35;;;2.75;;
75655;SDS011;64252;51.094;13.714;2023-06-14T01:35:57;5.65;;;2.67;;
75655;SDS011;64252;51.094;13.714;2023-06-14T01:38:24;5.90;;;3.00;;
75655;SDS011;64252;51.094;13.714;2023-06-14T01:40:51;6.13;;;2.70;;
75655;SDS011;64252;51.094;13.714;2023-06-14T01:43:19;4.40;;;2.97;;
75655;SDS011;64252;51.094;13.714;2023-06-14T01:45:47;5.43;;;3.20;;
75655;SDS011;64252;51.094;13.714;2023-06-14T01:48:14;4.10;;;2.70;;
75655;SDS011;64252;51.094;13.714;2023-06-14T01:50:40;5.82;;;3.17;;
75655;SDS011;64252;51.094;13.714;2023-06-14T01:53:09;4.25;;;2.95;;
75655;SDS011;64252;51.094;13.714;2023-06-14T01:55:36;6.97;;;3.05;;
75655;SDS011;64252;51.094;13.714;2023-06-14T01:58:05;4.95;;;2.88;;
75655;SDS011;64252;51.094;13.714;2023-06-14T02:00:31;5.25;;;2.92;;
75655;SDS011;64252;51.094;13.714;2023-06-14T02:02:57;5.90;;;3.15;;
75655;SDS011;64252;51.094;13.714;2023-06-14T02:05:25;4.95;;;3.05;;
75655;SDS011;64252;51.094;13.714;2023-06-14T02:07:51;4.93;;;2.85;;
75655;SDS011;64252;51.094;13.714;2023-06-14T02:10:21;6.40;;;3.08;;
75655;SDS011;64252;51.094;13.714;2023-06-14T02:12:47;5.18;;;3.10;;
75655;SDS011;64252;51.094;13.714;2023-06-14T02:15:13;5.50;;;3.00;;
75655;SDS011;64252;51.094;13.714;2023-06-14T02:17:45;8.00;;;3.40;;
75655;SDS011;64252;51.094;13.714;2023-06-14T02:20:12;5.20;;;3.15;;
75655;SDS011;64252;51.094;13.714;2023-06-14T02:22:38;6.25;;;3.38;;
75655;SDS011;64252;51.094;13.714;2023-06-14T02:25:06;5.43;;;3.20;;
75655;SDS011;64252;51.094;13.714;2023-06-14T02:27:32;6.07;;;3.15;;
75655;SDS011;64252;51.094;13.714;2023-06-14T02:29:59;6.68;;;3.28;;
75655;SDS011;64252;51.094;13.714;2023-06-14T02:32:26;4.90;;;3.10;;
75655;SDS011;64252;51.094;13.714;2023-06-14T02:34:52;9.27;;;3.25;;
75655;SDS011;64252;51.094;13.714;2023-06-14T02:37:19;6.43;;;3.30;;
75655;SDS011;64252;51.094;13.714;2023-06-14T02:39:45;6.43;;;3.55;;
75655;SDS011;64252;51.094;13.714;2023-06-14T02:42:11;6.28;;;3.35;;
75655;SDS011;64252;51.094;13.714;2023-06-14T02:44:38;4.63;;;3.00;;
75655;SDS011;64252;51.094;13.714;2023-06-14T02:47:04;5.60;;;3.65;;
75655;SDS011;64252;51.094;13.714;2023-06-14T02:49:30;7.28;;;3.67;;
75655;SDS011;64252;51.094;13.714;2023-06-14T02:51:56;6.20;;;3.30;;
75655;SDS011;64252;51.094;13.714;2023-06-14T02:54:21;6.20;;;3.40;;
75655;SDS011;64252;51.094;13.714;2023-06-14T02:56:47;4.72;;;3.20;;
75655;SDS011;64252;51.094;13.714;2023-06-14T02:59:13;5.68;;;3.20;;
75655;SDS011;64252;51.094;13.714;2023-06-14T03:01:40;7.10;;;4.15;;
75655;SDS011;64252;51.094;13.714;2023-06-14T03:04:09;11.90;;;5.03;;
75655;SDS011;64252;51.094;13.714;2023-06-14T03:06:38;5.38;;;3.45;;
75655;SDS011;64252;51.094;13.714;2023-06-14T03:09:05;5.78;;;3.08;;
75655;SDS011;64252;51.094;13.714;2023-06-14T03:11:33;5.35;;;3.40;;
75655;SDS011;64252;51.094;13.714;2023-06-14T03:14:00;6.07;;;3.58;;
75655;SDS011;64252;51.094;13.714;2023-06-14T03:16:26;6.07;;;3.95;;
75655;SDS011;64252;51.094;13.714;2023-06-14T03:18:54;5.75;;;3.70;;
75655;SDS011;64252;51.094;13.714;2023-06-14T03:21:23;6.93;;;3.70;;
75655;SDS011;64252;51.094;13.714;2023-06-14T03:23:52;4.88;;;3.30;;
75655;SDS011;64252;51.094;13.714;2023-06-14T03:26:18;6.35;;;3.90;;
75655;SDS011;64252;51.094;13.714;2023-06-14T03:28:46;5.90;;;3.47;;
75655;SDS011;64252;51.094;13.714;2023-06-14T03:31:13;9.38;;;3.75;;
75655;SDS011;64252;51.094;13.714;2023-06-14T03:33:39;5.68;;;3.30;;
75655;SDS011;64252;51.094;13.714;2023-06-14T03:36:05;7.20;;;3.70;;
75655;SDS011;64252;51.094;13.714;2023-06-14T03:38:35;7.57;;;3.60;;
75655;SDS011;64252;51.094;13.714;2023-06-14T03:41:04;5.60;;;3.80;;
75655;SDS011;64252;51.094;13.714;2023-06-14T03:43:31;5.22;;;3.40;;
75655;SDS011;64252;51.094;13.714;2023-06-14T03:45:57;8.43;;;3.90;;
75655;SDS011;64252;51.094;13.714;2023-06-14T03:48:24;5.13;;;3.60;;
75655;SDS011;64252;51.094;13.714;2023-06-14T03:50:50;6.95;;;3.65;;
75655;SDS011;64252;51.094;13.714;2023-06-14T03:53:16;7.65;;;4.03;;
75655;SDS011;64252;51.094;13.714;2023-06-14T03:55:46;7.45;;;3.80;;
75655;SDS011;64252;51.094;13.714;2023-06-14T03:58:16;6.85;;;3.75;;
75655;SDS011;64252;51.094;13.714;2023-06-14T04:00:42;8.68;;;3.67;;
75655;SDS011;64252;51.094;13.714;2023-06-14T04:03:08;6.93;;;3.75;;
75655;SDS011;64252;51.094;13.714;2023-06-14T04:05:35;6.88;;;4.25;;
75655;SDS011;64252;51.094;13.714;2023-06-14T04:08:06;6.05;;;3.65;;
75655;SDS011;64252;51.094;13.714;2023-06-14T04:10:34;6.85;;;4.22;;
75655;SDS011;64252;51.094;13.714;2023-06-14T04:13:01;5.63;;;3.72;;
75655;SDS011;64252;51.094;13.714;2023-06-14T04:15:26;6.22;;;3.72;;
75655;SDS011;64252;51.094;13.714;2023-06-14T04:17:55;7.13;;;3.53;;
75655;SDS011;64252;51.094;13.714;2023-06-14T04:20:23;6.72;;;3.70;;
75655;SDS011;64252;51.094;13.714;2023-06-14T04:22:52;7.00;;;4.00;;
75655;SDS011;64252;51.094;13.714;2023-06-14T04:25:18;6.63;;;3.58;;
75655;SDS011;64252;51.094;13.714;2023-06-14T04:27:44;6.35;;;4.03;;
75655;SDS011;64252;51.094;13.714;2023-06-14T04:30:10;4.78;;;3.35;;
75655;SDS011;64252;51.094;13.714;2023-06-14T04:32:41;7.45;;;3.75;;
75655;SDS011;64252;51.094;13.714;2023-06-14T04:35:10;5.30;;;3.90;;
75655;SDS011;64252;51.094;13.714;2023-06-14T04:37:38;5.18;;;3.45;;
75655;SDS011;64252;51.094;13.714;2023-06-14T04:40:07;6.68;;;3.65;;
75655;SDS011;64252;51.094;13.714;2023-06-14T04:42:35;5.38;;;3.95;;
75655;SDS011;64252;51.094;13.714;2023-06-14T04:45:03;6.20;;;3.65;;
75655;SDS011;64252;51.094;13.714;2023-06-14T04:47:29;5.82;;;3.95;;
75655;SDS011;64252;51.094;13.714;2023-06-14T04:49:57;7.82;;;4.07;;
75655;SDS011;64252;51.094;13.714;2023-06-14T04:52:23;6.30;;;4.28;;
75655;SDS011;64252;51.094;13.714;2023-06-14T04:54:53;7.32;;;4.20;;
75655;SDS011;64252;51.094;13.714;2023-06-14T04:57:20;6.18;;;3.80;;
75655;SDS011;64252;51.094;13.714;2023-06-14T04:59:49;8.95;;;4.13;;
75655;SDS011;64252;51.094;13.714;2023-06-14T05:02:23;5.50;;;3.37;;
75655;SDS011;64252;51.094;13.714;2023-06-14T05:04:51;7.57;;;4.80;;
75655;SDS011;64252;51.094;13.714;2023-06-14T05:07:16;8.02;;;4.00;;
75655;SDS011;64252;51.094;13.714;2023-06-14T05:09:42;8.32;;;3.60;;
75655;SDS011;64252;51.094;13.714;2023-06-14T05:12:09;5.82;;;3.10;;
75655;SDS011;64252;51.094;13.714;2023-06-14T05:14:35;5.50;;;3.50;;
75655;SDS011;64252;51.094;13.714;2023-06-14T05:17:02;6.35;;;3.10;;
75655;SDS011;64252;51.094;13.714;2023-06-14T05:19:28;4.97;;;2.45;;
75655;SDS011;64252;51.094;13.714;2023-06-14T05:21:54;6.35;;;3.20;;
75655;SDS011;64252;51.094;13.714;2023-06-14T05:24:19;8.32;;;3.78;;
75655;SDS011;64252;51.094;13.714;2023-06-14T05:26:46;6.07;;;4.25;;
75655;SDS011;64252;51.094;13.714;2023-06-14T05:29:14;6.63;;;3.25;;
75655;SDS011;64252;51.094;13.714;2023-06-14T05:31:39;5.32;;;2.80;;
75655;SDS011;64252;51.094;13.714;2023-06-14T05:34:05;4.93;;;3.13;;
75655;SDS011;64252;51.094;13.714;2023-06-14T05:36:31;5.63;;;3.05;;
75655;SDS011;64252;51.094;13.714;2023-06-14T05:38:57;6.07;;;3.65;;
75655;SDS011;64252;51.094;13.714;2023-06-14T05:41:28;7.18;;;3.60;;
75655;SDS011;64252;51.094;13.714;2023-06-14T05:43:54;7.25;;;3.95;;
75655;SDS011;64252;51.094;13.714;2023-06-14T05:46:23;6.38;;;3.45;;
75655;SDS011;64252;51.094;13.714;2023-06-14T05:48:53;12.50;;;8.65;;
75655;SDS011;64252;51.094;13.714;2023-06-14T05:51:19;8.32;;;4.18;;
75655;SDS011;64252;51.094;13.714;2023-06-14T05:53:46;6.32;;;3.70;;
75655;SDS011;64252;51.094;13.714;2023-06-14T05:56:12;7.82;;;4.15;;
75655;SDS011;64252;51.094;13.714;2023-06-14T05:58:39;6.05;;;3.33;;
75655;SDS011;64252;51.094;13.714;2023-06-14T06:01:05;4.90;;;3.25;;
75655;SDS011;64252;51.094;13.714;2023-06-14T06:03:31;6.72;;;3.05;;
75655;SDS011;64252;51.094;13.714;2023-06-14T06:05:57;5.70;;;3.40;;
75655;SDS011;64252;51.094;13.714;2023-06-14T06:08:23;5.40;;;2.95;;
75655;SDS011;64252;51.094;13.714;2023-06-14T06:10:49;4.75;;;3.30;;
75655;SDS011;64252;51.094;13.714;2023-06-14T06:13:16;6.40;;;3.17;;
75655;SDS011;64252;51.094;13.714;2023-06-14T06:15:42;6.97;;;3.38;;
75655;SDS011;64252;51.094;13.714;2023-06-14T06:18:08;5.80;;;2.80;;
75655;SDS011;64252;51.094;13.714;2023-06-14T06:20:34;5.85;;;3.20;;
75655;SDS011;64252;51.094;13.714;2023-06-14T06:23:01;4.07;;;2.70;;
75655;SDS011;64252;51.094;13.714;2023-06-14T06:25:27;5.32;;;3.13;;
75655;SDS011;64252;51.094;13.714;2023-06-14T06:27:54;4.82;;;2.90;;
75655;SDS011;64252;51.094;13.714;2023-06-14T06:30:22;4.93;;;2.63;;
75655;SDS011;64252;51.094;13.714;2023-06-14T06:32:48;6.53;;;2.95;;
75655;SDS011;64252;51.094;13.714;2023-06-14T06:35:14;6.47;;;3.35;;
75655;SDS011;64252;51.094;13.714;2023-06-14T06:37:43;5.40;;;2.72;;
75655;SDS011;64252;51.094;13.714;2023-06-14T06:40:09;5.20;;;2.83;;
75655;SDS011;64252;51.094;13.714;2023-06-14T06:42:35;7.22;;;3.75;;
75655;SDS011;64252;51.094;13.714;2023-06-14T06:45:05;6.30;;;3.22;;
75655;SDS011;64252;51.094;13.714;2023-06-14T06:47:31;5.47;;;3.15;;
75655;SDS011;64252;51.094;13.714;2023-06-14T06:49:56;4.35;;;2.83;;
75655;SDS011;64252;51.094;13.714;2023-06-14T06:52:22;5.88;;;3.00;;
75655;SDS011;64252;51.094;13.714;2023-06-14T06:54:48;5.05;;;2.90;;
75655;SDS011;64252;51.094;13.714;2023-06-14T06:57:15;5.05;;;2.53;;
75655;SDS011;64252;51.094;13.714;2023-06-14T06:59:41;8.85;;;3.10;;
75655;SDS011;64252;51.094;13.714;2023-06-14T07:02:07;5.30;;;3.28;;
75655;SDS011;64252;51.094;13.714;2023-06-14T07:04:33;6.57;;;2.95;;
75655;SDS011;64252;51.094;13.714;2023-06-14T07:06:58;4.97;;;2.97;;
75655;SDS011;64252;51.094;13.714;2023-06-14T07:09:24;4.55;;;3.00;;
75655;SDS011;64252;51.094;13.714;2023-06-14T07:11:50;5.78;;;3.03;;
75655;SDS011;64252;51.094;13.714;2023-06-14T07:14:15;4.10;;;2.58;;
75655;SDS011;64252;51.094;13.714;2023-06-14T07:16:44;4.32;;;3.13;;
75655;SDS011;64252;51.094;13.714;2023-06-14T07:19:11;5.80;;;2.70;;
75655;SDS011;64252;51.094;13.714;2023-06-14T07:21:37;4.13;;;2.55;;
75655;SDS011;64252;51.094;13.714;2023-06-14T07:24:04;3.28;;;2.20;;
75655;SDS011;64252;51.094;13.714;2023-06-14T07:26:31;6.60;;;2.50;;
75655;SDS011;64252;51.094;13.714;2023-06-14T07:28:57;5.40;;;2.50;;
75655;SDS011;64252;51.094;13.714;2023-06-14T07:31:23;5.03;;;2.50;;
75655;SDS011;64252;51.094;13.714;2023-06-14T07:33:50;3.90;;;2.40;;
75655;SDS011;64252;51.094;13.714;2023-06-14T07:36:16;5.50;;;2.33;;
75655;SDS011;64252;51.094;13.714;2023-06-14T07:38:43;4.88;;;2.42;;
75655;SDS011;64252;51.094;13.714;2023-06-14T07:41:09;3.40;;;2.20;;
75655;SDS011;64252;51.094;13.714;2023-06-14T07:43:35;4.95;;;2.38;;
75655;SDS011;64252;51.094;13.714;2023-06-14T07:46:00;4.53;;;2.35;;
75655;SDS011;64252;51.094;13.714;2023-06-14T07:48:27;6.43;;;2.30;;
75655;SDS011;64252;51.094;13.714;2023-06-14T07:50:53;4.03;;;2.10;;
75655;SDS011;64252;51.094;13.714;2023-06-14T07:53:18;3.95;;;2.35;;
75655;SDS011;64252;51.094;13.714;2023-06-14T07:55:44;5.47;;;2.33;;
75655;SDS011;64252;51.094;13.714;2023-06-14T07:58:10;5.25;;;2.30;;
75655;SDS011;64252;51.094;13.714;2023-06-14T08:00:36;5.43;;;2.70;;
75655;SDS011;64252;51.094;13.714;2023-06-14T08:03:01;5.70;;;2.53;;
75655;SDS011;64252;51.094;13.714;2023-06-14T08:05:28;5.13;;;2.08;;
75655;SDS011;64252;51.094;13.714;2023-06-14T08:07:54;3.97;;;2.10;;
75655;SDS011;64252;51.094;13.714;2023-06-14T08:10:20;3.75;;;2.13;;
75655;SDS011;64252;51.094;13.714;2023-06-14T08:12:47;4.38;;;2.33;;
75655;SDS011;64252;51.094;13.714;2023-06-14T08:15:15;8.35;;;2.45;;
75655;SDS011;64252;51.094;13.714;2023-06-14T08:17:45;6.70;;;2.30;;
75655;SDS011;64252;51.094;13.714;2023-06-14T08:20:11;3.45;;;2.00;;
75655;SDS011;64252;51.094;13.714;2023-06-14T08:22:37;4.70;;;2.13;;
75655;SDS011;64252;51.094;13.714;2023-06-14T08:25:04;4.15;;;1.98;;
75655;SDS011;64252;51.094;13.714;2023-06-14T08:27:31;3.38;;;2.00;;
75655;SDS011;64252;51.094;13.714;2023-06-14T08:29:57;4.03;;;1.90;;
75655;SDS011;64252;51.094;13.714;2023-06-14T08:32:23;3.28;;;1.70;;
75655;SDS011;64252;51.094;13.714;2023-06-14T08:34:49;4.22;;;2.00;;
75655;SDS011;64252;51.094;13.714;2023-06-14T08:37:14;3.75;;;2.00;;
75655;SDS011;64252;51.094;13.714;2023-06-14T08:39:40;6.50;;;1.95;;
75655;SDS011;64252;51.094;13.714;2023-06-14T08:42:06;5.35;;;1.90;;
75655;SDS011;64252;51.094;13.714;2023-06-14T08:44:34;4.68;;;2.10;;
75655;SDS011;64252;51.094;13.714;2023-06-14T08:47:00;3.80;;;1.90;;
75655;SDS011;64252;51.094;13.714;2023-06-14T08:49:25;3.60;;;2.10;;
75655;SDS011;64252;51.094;13.714;2023-06-14T08:51:58;3.80;;;1.95;;
75655;SDS011;64252;51.094;13.714;2023-06-14T08:54:25;4.78;;;2.38;;
75655;SDS011;64252;51.094;13.714;2023-06-14T08:56:59;4.70;;;2.15;;
75655;SDS011;64252;51.094;13.714;2023-06-14T08:59:25;3.47;;;1.92;;
75655;SDS011;64252;51.094;13.714;2023-06-14T09:01:53;4.10;;;2.50;;
75655;SDS011;64252;51.094;13.714;2023-06-14T09:04:23;4.07;;;2.45;;
75655;SDS011;64252;51.094;13.714;2023-06-14T09:09:20;7.63;;;2.70;;
75655;SDS011;64252;51.094;13.714;2023-06-14T09:11:49;5.40;;;2.53;;
75655;SDS011;64252;51.094;13.714;2023-06-14T09:14:15;4.25;;;2.60;;
75655;SDS011;64252;51.094;13.714;2023-06-14T09:16:41;3.25;;;2.17;;
75655;SDS011;64252;51.094;13.714;2023-06-14T09:19:06;3.50;;;2.40;;
75655;SDS011;64252;51.094;13.714;2023-06-14T09:21:35;5.88;;;2.88;;
75655;SDS011;64252;51.094;13.714;2023-06-14T09:24:02;6.82;;;2.75;;
75655;SDS011;64252;51.094;13.714;2023-06-14T09:26:29;4.85;;;2.67;;
75655;SDS011;64252;51.094;13.714;2023-06-14T09:28:55;4.78;;;2.35;;
75655;SDS011;64252;51.094;13.714;2023-06-14T09:31:21;4.28;;;2.28;;
75655;SDS011;64252;51.094;13.714;2023-06-14T09:33:50;4.95;;;2.55;;
75655;SDS011;64252;51.094;13.714;2023-06-14T09:36:23;5.65;;;2.65;;
75655;SDS011;64252;51.094;13.714;2023-06-14T09:38:55;6.10;;;2.70;;
75655;SDS011;64252;51.094;13.714;2023-06-14T09:41:31;7.78;;;3.00;;
75655;SDS011;64252;51.094;13.714;2023-06-14T09:43:59;3.80;;;2.22;;
75655;SDS011;64252;51.094;13.714;2023-06-14T09:46:32;5.22;;;2.63;;
75655;SDS011;64252;51.094;13.714;2023-06-14T09:48:58;5.85;;;3.00;;
75655;SDS011;64252;51.094;13.714;2023-06-14T09:51:25;5.28;;;2.38;;
75655;SDS011;64252;51.094;13.714;2023-06-14T09:53:51;7.28;;;3.25;;
75655;SDS011;64252;51.094;13.714;2023-06-14T09:56:27;4.90;;;3.20;;
75655;SDS011;64252;51.094;13.714;2023-06-14T09:58:57;6.30;;;2.70;;
75655;SDS011;64252;51.094;13.714;2023-06-14T10:01:27;4.97;;;2.65;;
75655;SDS011;64252;51.094;13.714;2023-06-14T10:03:58;4.22;;;2.35;;
75655;SDS011;64252;51.094;13.714;2023-06-14T10:06:25;4.30;;;2.25;;
75655;SDS011;64252;51.094;13.714;2023-06-14T10:08:54;4.95;;;2.60;;
75655;SDS011;64252;51.094;13.714;2023-06-14T10:11:22;4.80;;;2.50;;
75655;SDS011;64252;51.094;13.714;2023-06-14T10:13:50;4.00;;;2.47;;
75655;SDS011;64252;51.094;13.714;2023-06-14T10:16:17;5.13;;;2.80;;
75655;SDS011;64252;51.094;13.714;2023-06-14T10:21:41;4.97;;;2.53;;
75655;SDS011;64252;51.094;13.714;2023-06-14T10:24:12;4.82;;;2.65;;
75655;SDS011;64252;51.094;13.714;2023-06-14T10:26:50;6.97;;;2.80;;
75655;SDS011;64252;51.094;13.714;2023-06-14T10:29:20;3.53;;;2.10;;
75655;SDS011;64252;51.094;13.714;2023-06-14T10:31:46;6.57;;;2.40;;
75655;SDS011;64252;51.094;13.714;2023-06-14T10:34:23;3.65;;;2.10;;
75655;SDS011;64252;51.094;13.714;2023-06-14T10:39:31;4.85;;;2.47;;
75655;SDS011;64252;51.094;13.714;2023-06-14T10:41:58;3.83;;;2.13;;
75655;SDS011;64252;51.094;13.714;2023-06-14T10:46:55;4.07;;;2.30;;
75655;SDS011;64252;51.094;13.714;2023-06-14T10:52:07;6.22;;;2.75;;
75655;SDS011;64252;51.094;13.714;2023-06-14T10:54:37;7.57;;;2.53;;
75655;SDS011;64252;51.094;13.714;2023-06-14T10:57:03;4.68;;;2.75;;
75655;SDS011;64252;51.094;13.714;2023-06-14T10:59:32;4.22;;;2.22;;
75655;SDS011;64252;51.094;13.714;2023-06-14T11:02:20;4.22;;;2.70;;
75655;SDS011;64252;51.094;13.714;2023-06-14T11:05:10;5.63;;;2.22;;
75655;SDS011;64252;51.094;13.714;2023-06-14T11:10:41;5.35;;;2.97;;
75655;SDS011;64252;51.094;13.714;2023-06-14T11:13:09;6.90;;;2.95;;
75655;SDS011;64252;51.094;13.714;2023-06-14T11:15:36;5.28;;;2.38;;
75655;SDS011;64252;51.094;13.714;2023-06-14T11:18:03;4.35;;;2.58;;
75655;SDS011;64252;51.094;13.714;2023-06-14T11:20:35;5.32;;;2.92;;
75655;SDS011;64252;51.094;13.714;2023-06-14T11:23:03;5.22;;;2.65;;
75655;SDS011;64252;51.094;13.714;2023-06-14T11:25:29;4.47;;;2.67;;
75655;SDS011;64252;51.094;13.714;2023-06-14T11:27:58;7.07;;;2.60;;
75655;SDS011;64252;51.094;13.714;2023-06-14T11:30:26;4.47;;;2.10;;
75655;SDS011;64252;51.094;13.714;2023-06-14T11:32:53;3.95;;;2.45;;
75655;SDS011;64252;51.094;13.714;2023-06-14T11:35:23;4.45;;;2.75;;
75655;SDS011;64252;51.094;13.714;2023-06-14T11:38:01;6.97;;;2.97;;
75655;SDS011;64252;51.094;13.714;2023-06-14T11:40:28;5.72;;;2.65;;
75655;SDS011;64252;51.094;13.714;2023-06-14T11:43:00;5.15;;;2.58;;
75655;SDS011;64252;51.094;13.714;2023-06-14T11:45:28;5.28;;;2.60;;
75655;SDS011;64252;51.094;13.714;2023-06-14T11:47:55;5.70;;;2.67;;
75655;SDS011;64252;51.094;13.714;2023-06-14T11:50:22;4.90;;;3.17;;
75655;SDS011;64252;51.094;13.714;2023-06-14T11:52:57;4.82;;;2.60;;
75655;SDS011;64252;51.094;13.714;2023-06-14T11:55:38;5.15;;;2.40;;
75655;SDS011;64252;51.094;13.714;2023-06-14T11:58:05;4.28;;;2.38;;
75655;SDS011;64252;51.094;13.714;2023-06-14T12:00:31;3.72;;;2.30;;
75655;SDS011;64252;51.094;13.714;2023-06-14T12:02:58;4.32;;;2.20;;
75655;SDS011;64252;51.094;13.714;2023-06-14T12:05:24;5.13;;;2.03;;
75655;SDS011;64252;51.094;13.714;2023-06-14T12:07:57;4.47;;;2.25;;
75655;SDS011;64252;51.094;13.714;2023-06-14T12:10:25;4.80;;;2.47;;
75655;SDS011;64252;51.094;13.714;2023-06-14T12:12:56;4.35;;;2.55;;
75655;SDS011;64252;51.094;13.714;2023-06-14T12:15:22;6.53;;;2.88;;
75655;SDS011;64252;51.094;13.714;2023-06-14T12:17:47;3.75;;;2.55;;
75655;SDS011;64252;51.094;13.714;2023-06-14T12:20:13;4.57;;;2.40;;
75655;SDS011;64252;51.094;13.714;2023-06-14T12:25:26;4.68;;;2.83;;
75655;SDS011;64252;51.094;13.714;2023-06-14T12:28:04;4.60;;;2.90;;
75655;SDS011;64252;51.094;13.714;2023-06-14T12:30:32;5.43;;;3.40;;
75655;SDS011;64252;51.094;13.714;2023-06-14T12:32:58;4.35;;;3.17;;
75655;SDS011;64252;51.094;13.714;2023-06-14T12:35:24;4.68;;;3.22;;
75655;SDS011;64252;51.094;13.714;2023-06-14T12:37:49;8.32;;;3.72;;
75655;SDS011;64252;51.094;13.714;2023-06-14T12:40:15;4.82;;;3.40;;
75655;SDS011;64252;51.094;13.714;2023-06-14T12:42:41;7.45;;;4.40;;
75655;SDS011;64252;51.094;13.714;2023-06-14T12:45:07;6.20;;;3.63;;
75655;SDS011;64252;51.094;13.714;2023-06-14T12:47:34;5.65;;;3.00;;
75655;SDS011;64252;51.094;13.714;2023-06-14T12:50:00;5.88;;;3.15;;
75655;SDS011;64252;51.094;13.714;2023-06-14T12:52:26;3.97;;;2.92;;
75655;SDS011;64252;51.094;13.714;2023-06-14T12:54:52;5.30;;;2.72;;
75655;SDS011;64252;51.094;13.714;2023-06-14T12:57:17;4.25;;;2.75;;
75655;SDS011;64252;51.094;13.714;2023-06-14T12:59:43;4.28;;;2.33;;
75655;SDS011;64252;51.094;13.714;2023-06-14T13:02:15;6.75;;;2.92;;
75655;SDS011;64252;51.094;13.714;2023-06-14T13:04:42;3.53;;;2.08;;
75655;SDS011;64252;51.094;13.714;2023-06-14T13:07:08;3.53;;;2.00;;
75655;SDS011;64252;51.094;13.714;2023-06-14T13:09:35;3.95;;;2.30;;
75655;SDS011;64252;51.094;13.714;2023-06-14T13:12:02;4.00;;;2.30;;
75655;SDS011;64252;51.094;13.714;2023-06-14T13:14:27;4.20;;;2.20;;
75655;SDS011;64252;51.094;13.714;2023-06-14T13:16:54;5.03;;;2.78;;
75655;SDS011;64252;51.094;13.714;2023-06-14T13:19:21;5.00;;;2.70;;
75655;SDS011;64252;51.094;13.714;2023-06-14T13:21:47;7.90;;;3.03;;
75655;SDS011;64252;51.094;13.714;2023-06-14T13:24:13;6.50;;;2.70;;
75655;SDS011;64252;51.094;13.714;2023-06-14T13:26:39;5.90;;;2.33;;
75655;SDS011;64252;51.094;13.714;2023-06-14T13:29:05;10.05;;;3.25;;
75655;SDS011;64252;51.094;13.714;2023-06-14T13:31:30;6.45;;;3.00;;
75655;SDS011;64252;51.094;13.714;2023-06-14T13:33:56;6.10;;;2.85;;
75655;SDS011;64252;51.094;13.714;2023-06-14T13:36:22;5.63;;;2.83;;
75655;SDS011;64252;51.094;13.714;2023-06-14T13:38:48;4.95;;;2.75;;
75655;SDS011;64252;51.094;13.714;2023-06-14T13:43:42;10.50;;;3.00;;
75655;SDS011;64252;51.094;13.714;2023-06-14T13:46:07;3.90;;;2.10;;
75655;SDS011;64252;51.094;13.714;2023-06-14T13:48:33;6.15;;;2.17;;
75655;SDS011;64252;51.094;13.714;2023-06-14T13:50:59;4.82;;;2.33;;
75655;SDS011;64252;51.094;13.714;2023-06-14T13:53:25;6.70;;;2.30;;
75655;SDS011;64252;51.094;13.714;2023-06-14T13:55:51;7.70;;;2.53;;
75655;SDS011;64252;51.094;13.714;2023-06-14T13:58:17;6.63;;;2.58;;
75655;SDS011;64252;51.094;13.714;2023-06-14T14:00:44;3.95;;;2.40;;
75655;SDS011;64252;51.094;13.714;2023-06-14T14:03:09;7.28;;;2.28;;
75655;SDS011;64252;51.094;13.714;2023-06-14T14:05:35;3.78;;;2.20;;
75655;SDS011;64252;51.094;13.714;2023-06-14T14:08:00;4.28;;;2.65;;
75655;SDS011;64252;51.094;13.714;2023-06-14T14:10:27;12.32;;;2.95;;
75655;SDS011;64252;51.094;13.714;2023-06-14T14:12:52;7.70;;;2.65;;
75655;SDS011;64252;51.094;13.714;2023-06-14T14:15:19;3.80;;;2.22;;
75655;SDS011;64252;51.094;13.714;2023-06-14T14:17:45;6.30;;;2.30;;
75655;SDS011;64252;51.094;13.714;2023-06-14T14:20:12;3.90;;;2.28;;
75655;SDS011;64252;51.094;13.714;2023-06-14T14:22:41;4.10;;;2.35;;
75655;SDS011;64252;51.094;13.714;2023-06-14T14:25:07;4.80;;;2.25;;
75655;SDS011;64252;51.094;13.714;2023-06-14T14:27:33;3.95;;;1.90;;
75655;SDS011;64252;51.094;13.714;2023-06-14T14:29:59;3.17;;;1.98;;
75655;SDS011;64252;51.094;13.714;2023-06-14T14:32:27;3.40;;;1.75;;
75655;SDS011;64252;51.094;13.714;2023-06-14T14:34:53;3.50;;;1.92;;
75655;SDS011;64252;51.094;13.714;2023-06-14T14:37:18;4.15;;;1.92;;
75655;SDS011;64252;51.094;13.714;2023-06-14T14:39:44;3.72;;;2.20;;
75655;SDS011;64252;51.094;13.714;2023-06-14T14:42:10;4.15;;;2.20;;
75655;SDS011;64252;51.094;13.714;2023-06-14T14:44:38;8.38;;;2.50;;
75655;SDS011;64252;51.094;13.714;2023-06-14T14:47:03;3.92;;;2.10;;
75655;SDS011;64252;51.094;13.714;2023-06-14T14:49:30;4.00;;;2.17;;
75655;SDS011;64252;51.094;13.714;2023-06-14T14:51:56;3.83;;;2.20;;
75655;SDS011;64252;51.094;13.714;2023-06-14T14:54:22;4.47;;;2.05;;
75655;SDS011;64252;51.094;13.714;2023-06-14T14:56:48;4.68;;;1.90;;
75655;SDS011;64252;51.094;13.714;2023-06-14T14:59:14;3.75;;;2.40;;
75655;SDS011;64252;51.094;13.714;2023-06-14T15:01:40;3.88;;;2.22;;
75655;SDS011;64252;51.094;13.714;2023-06-14T15:04:05;4.70;;;2.50;;